NORTHEAST SUFFOLK  -  Winter Weather Advisory Winter Weather Advisory        NORTHERN NASSAU  -  Winter Weather Advisory Winter Weather Advisory        NORTHWEST SUFFOLK  -  Winter Weather Advisory Winter Weather Advisory        SOUTHEAST SUFFOLK  -  Winter Weather Advisory Winter Weather Advisory        SOUTHERN NASSAU  -  Winter Weather Advisory Winter Weather Advisory        SOUTHWEST SUFFOLK  -  Winter Weather Advisory Winter Weather Advisory      

Active alerts

Northern Nassau
  Details for Northern Nassau Winter Weather Advisory
Southern Nassau
  Details for Southern Nassau Winter Weather Advisory
Northwest Suffolk
  Details for Northwest Suffolk Winter Weather Advisory
Southwest Suffolk
  Details for Southwest Suffolk Winter Weather Advisory
Northeast Suffolk
  Details for Northeast Suffolk Winter Weather Advisory
Southeast Suffolk
  Details for Southeast Suffolk Winter Weather Advisory


WXM80 ListenWXM80 Stop

You find our weather info also at:

UK Metoffice

WeatherCloud

Weather Underground

Northeastern Weather Network

AWEKAS

Citizen Weather Observer Program (CWOP)

HAMweather, WeatherForYou, PWS Weather


Weather Underground History page Text

Daily Summary for April 17, 2017 Units:  English    Metric   Both
« Previous Day
Next Day »
Daily Weekly Monthly Yearly Custom
  High: Low: Average:
Temperature: 74.1 °F 57.3 °F 66.1 °F
Dew Point: 59.7 °F 34.7 °F 48.4 °F
Humidity: 86 % 28 % 56 %
Wind Speed: 8.7 mph 0.2 mph 4 mph
Wind Gust: 16.1 mph - -
Wind:- - West
Pressure: 30.11 in 29.79 in -
Precipitation: 0.00 in    
Historical Graphs
 
 
Tabular Data for April 17, 2017
Time Temperature Dew Point Pressure Wind Wind Speed Wind Gust Humidity Rainfall Rate (Hourly)
00:03 66.5 °F 58.3 °F 29.80 in SW 2.8 mph 5.0 mph 75 % 0.00 in
00:08 66.5 °F 58.3 °F 29.80 in WSW 0.6 mph 1.2 mph 75 % 0.00 in
00:13 66.5 °F 58.3 °F 29.80 in WSW 3.2 mph 8.0 mph 75 % 0.00 in
00:19 66.6 °F 58.4 °F 29.80 in WSW 2.2 mph 5.0 mph 75 % 0.00 in
00:24 66.6 °F 58.4 °F 29.79 in SSW 2.6 mph 6.9 mph 75 % 0.00 in
00:29 66.6 °F 58.1 °F 29.80 in SW 2.5 mph 4.0 mph 74 % 0.00 in
00:34 66.7 °F 58.1 °F 29.80 in WSW 4.4 mph 6.9 mph 74 % 0.00 in
00:39 66.7 °F 57.8 °F 29.80 in West 2.7 mph 6.0 mph 73 % 0.00 in
00:44 66.7 °F 57.8 °F 29.80 in SW 3.6 mph 5.0 mph 73 % 0.00 in
00:49 66.7 °F 57.4 °F 29.80 in West 5.2 mph 5.8 mph 72 % 0.00 in
00:54 66.7 °F 57.4 °F 29.80 in WSW 5.3 mph 8.1 mph 72 % 0.00 in
00:59 66.6 °F 57.3 °F 29.80 in WSW 5.0 mph 8.0 mph 72 % 0.00 in
01:04 66.5 °F 57.2 °F 29.80 in WSW 2.4 mph 5.8 mph 72 % 0.00 in
01:09 66.5 °F 57.2 °F 29.80 in SW 4.4 mph 11.5 mph 72 % 0.00 in
01:14 66.5 °F 57.2 °F 29.80 in West 2.2 mph 10.4 mph 72 % 0.00 in
01:19 66.6 °F 57.7 °F 29.80 in SW 4.8 mph 9.2 mph 73 % 0.00 in
01:24 66.6 °F 57.7 °F 29.80 in WSW 3.9 mph 8.1 mph 73 % 0.00 in
01:29 66.7 °F 57.8 °F 29.80 in WSW 4.3 mph 8.1 mph 73 % 0.00 in
01:34 66.7 °F 57.4 °F 29.80 in SW 3.7 mph 5.8 mph 72 % 0.00 in
01:39 66.6 °F 57.7 °F 29.80 in WSW 3.2 mph 10.0 mph 73 % 0.00 in
01:44 66.6 °F 57.7 °F 29.80 in SW 4.7 mph 10.0 mph 73 % 0.00 in
01:49 66.5 °F 57.6 °F 29.80 in SW 4.0 mph 8.1 mph 73 % 0.00 in
01:54 66.4 °F 57.9 °F 29.80 in West 3.0 mph 10.0 mph 74 % 0.00 in
02:00 66.3 °F 57.8 °F 29.80 in West 2.9 mph 5.0 mph 74 % 0.00 in
02:05 66.2 °F 58.0 °F 29.80 in West 3.3 mph 6.9 mph 75 % 0.00 in
02:10 66.1 °F 57.9 °F 29.80 in WSW 1.4 mph 6.0 mph 75 % 0.00 in
02:15 66.1 °F 57.9 °F 29.80 in SW 4.7 mph 9.2 mph 75 % 0.00 in
02:20 66.0 °F 58.2 °F 29.80 in WSW 5.6 mph 6.9 mph 76 % 0.00 in
02:25 65.9 °F 58.1 °F 29.80 in WSW 3.8 mph 6.9 mph 76 % 0.00 in
02:30 65.8 °F 58.4 °F 29.80 in SW 2.4 mph 5.0 mph 77 % 0.00 in
02:35 65.8 °F 58.4 °F 29.80 in WSW 4.7 mph 6.0 mph 77 % 0.00 in
02:37 65.8 °F 58.4 °F 29.80 in WSW 6.6 mph 9.2 mph 77 % 0.00 in
02:42 65.8 °F 58.4 °F 29.80 in SW 2.7 mph 4.6 mph 77 % 0.00 in
02:47 65.7 °F 58.3 °F 29.80 in WSW 2.5 mph 6.9 mph 77 % 0.00 in
02:52 65.7 °F 58.7 °F 29.79 in WSW 2.3 mph 4.6 mph 78 % 0.00 in
02:57 65.6 °F 58.6 °F 29.80 in SSW 3.3 mph 6.9 mph 78 % 0.00 in
03:03 65.6 °F 58.6 °F 29.80 in WSW 2.5 mph 4.6 mph 78 % 0.00 in
03:04 65.5 °F 58.5 °F 29.80 in SW 5.1 mph 9.2 mph 78 % 0.00 in
03:09 65.5 °F 58.5 °F 29.80 in West 2.8 mph 5.0 mph 78 % 0.00 in
03:15 65.4 °F 58.7 °F 29.80 in WSW 1.8 mph 6.0 mph 79 % 0.00 in
03:20 65.3 °F 58.6 °F 29.80 in West 3.1 mph 4.0 mph 79 % 0.00 in
03:25 65.2 °F 58.5 °F 29.80 in WSW 2.9 mph 5.8 mph 79 % 0.00 in
03:30 65.1 °F 58.4 °F 29.79 in WSW 4.0 mph 6.9 mph 79 % 0.00 in
03:35 65.0 °F 58.7 °F 29.80 in WSW 1.4 mph 3.5 mph 80 % 0.00 in
03:40 65.0 °F 58.7 °F 29.79 in SW 2.1 mph 5.8 mph 80 % 0.00 in
03:45 65.0 °F 59.0 °F 29.80 in WSW 2.4 mph 9.2 mph 81 % 0.00 in
03:50 64.9 °F 58.9 °F 29.80 in WSW 1.2 mph 3.5 mph 81 % 0.00 in
03:55 64.8 °F 58.8 °F 29.80 in SW 4.7 mph 10.4 mph 81 % 0.00 in
04:00 64.8 °F 59.2 °F 29.80 in WSW 3.3 mph 6.9 mph 82 % 0.00 in
04:05 64.7 °F 59.1 °F 29.80 in SW 3.5 mph 6.9 mph 82 % 0.00 in
04:10 64.7 °F 59.1 °F 29.80 in West 3.5 mph 7.0 mph 82 % 0.00 in
04:15 64.7 °F 59.1 °F 29.80 in SW 3.2 mph 8.1 mph 82 % 0.00 in
04:20 64.7 °F 59.1 °F 29.80 in WSW 4.4 mph 8.1 mph 82 % 0.00 in
04:25 64.7 °F 59.1 °F 29.80 in WSW 3.4 mph 6.0 mph 82 % 0.00 in
04:30 64.7 °F 59.1 °F 29.80 in WSW 4.4 mph 6.9 mph 82 % 0.00 in
04:35 64.7 °F 59.1 °F 29.80 in SW 3.1 mph 6.0 mph 82 % 0.00 in
04:40 64.6 °F 59.0 °F 29.80 in SW 2.1 mph 3.5 mph 82 % 0.00 in
04:45 64.6 °F 59.0 °F 29.80 in SW 2.9 mph 4.0 mph 82 % 0.00 in
04:50 64.4 °F 58.8 °F 29.80 in WSW 4.4 mph 8.1 mph 82 % 0.00 in
04:55 64.3 °F 58.7 °F 29.80 in SW 3.7 mph 6.9 mph 82 % 0.00 in
05:00 64.1 °F 58.8 °F 29.80 in SW 3.8 mph 6.9 mph 83 % 0.00 in
05:05 64.1 °F 58.8 °F 29.81 in SW 2.2 mph 5.0 mph 83 % 0.00 in
05:11 64.0 °F 58.7 °F 29.80 in WSW 2.8 mph 4.6 mph 83 % 0.00 in
05:16 64.0 °F 58.7 °F 29.80 in SW 3.5 mph 3.5 mph 83 % 0.00 in
05:21 63.9 °F 59.0 °F 29.81 in WSW 1.8 mph 3.5 mph 84 % 0.00 in
05:26 63.9 °F 59.0 °F 29.81 in WSW 3.1 mph 7.0 mph 84 % 0.00 in
05:31 63.9 °F 59.0 °F 29.81 in SW 3.3 mph 3.5 mph 84 % 0.00 in
05:32 63.9 °F 59.0 °F 29.81 in SW 4.4 mph 6.0 mph 84 % 0.00 in
05:37 63.8 °F 58.9 °F 29.81 in WSW 3.5 mph 8.1 mph 84 % 0.00 in
05:42 63.8 °F 58.9 °F 29.81 in WSW 1.9 mph 8.1 mph 84 % 0.00 in
05:47 63.8 °F 58.9 °F 29.81 in SW 3.7 mph 6.9 mph 84 % 0.00 in
05:52 63.8 °F 58.9 °F 29.82 in WSW 3.4 mph 5.0 mph 84 % 0.00 in
05:57 63.8 °F 58.9 °F 29.82 in WSW 3.3 mph 6.9 mph 84 % 0.00 in
06:02 63.7 °F 58.8 °F 29.83 in WSW 3.8 mph 5.8 mph 84 % 0.00 in
06:07 63.6 °F 58.7 °F 29.83 in WSW 4.6 mph 8.1 mph 84 % 0.00 in
06:12 63.6 °F 58.7 °F 29.83 in SSW 3.2 mph 5.8 mph 84 % 0.00 in
06:18 63.5 °F 58.6 °F 29.83 in SW 4.7 mph 8.1 mph 84 % 0.00 in
06:23 63.5 °F 58.6 °F 29.84 in WSW 2.4 mph 9.2 mph 84 % 0.00 in
06:28 63.4 °F 58.5 °F 29.84 in SW 3.4 mph 7.0 mph 84 % 0.00 in
06:33 63.3 °F 58.7 °F 29.84 in WSW 3.9 mph 6.9 mph 85 % 0.00 in
06:38 63.2 °F 58.6 °F 29.85 in SW 3.5 mph 8.1 mph 85 % 0.00 in
06:43 63.1 °F 58.5 °F 29.85 in SW 3.2 mph 4.6 mph 85 % 0.00 in
06:48 63.1 °F 58.5 °F 29.85 in WSW 3.3 mph 6.9 mph 85 % 0.00 in
06:53 63.1 °F 58.5 °F 29.85 in WSW 3.1 mph 6.0 mph 85 % 0.00 in
06:58 63.2 °F 58.9 °F 29.86 in SW 3.7 mph 7.0 mph 86 % 0.00 in
07:03 63.2 °F 58.6 °F 29.86 in SW 2.8 mph 4.6 mph 85 % 0.00 in
07:08 63.4 °F 59.1 °F 29.86 in WSW 2.2 mph 4.6 mph 86 % 0.00 in
07:13 63.6 °F 59.0 °F 29.86 in WSW 2.4 mph 4.6 mph 85 % 0.00 in
07:18 63.8 °F 59.2 °F 29.87 in West 7.8 mph 10.4 mph 85 % 0.00 in
07:23 64.1 °F 59.2 °F 29.87 in WSW 2.8 mph 4.6 mph 84 % 0.00 in
07:28 64.4 °F 59.5 °F 29.87 in West 2.3 mph 5.0 mph 84 % 0.00 in
07:33 64.7 °F 59.4 °F 29.87 in West 4.4 mph 6.9 mph 83 % 0.00 in
07:39 65.0 °F 59.4 °F 29.87 in West 0.8 mph 2.3 mph 82 % 0.00 in
07:44 65.4 °F 59.4 °F 29.87 in West 3.8 mph 5.8 mph 81 % 0.00 in
07:49 65.7 °F 59.0 °F 29.88 in West 5.4 mph 11.5 mph 79 % 0.00 in
07:54 66.0 °F 59.3 °F 29.87 in WNW 2.8 mph 11.5 mph 79 % 0.00 in
07:59 66.3 °F 59.2 °F 29.87 in SSW 2.8 mph 9.2 mph 78 % 0.00 in
08:04 66.6 °F 59.2 °F 29.87 in West 3.3 mph 6.9 mph 77 % 0.00 in
08:09 66.8 °F 59.4 °F 29.87 in NW 4.4 mph 6.9 mph 77 % 0.00 in
08:14 67.1 °F 59.3 °F 29.88 in WNW 1.8 mph 3.5 mph 76 % 0.00 in
08:19 67.5 °F 59.3 °F 29.87 in WNW 5.6 mph 5.6 mph 75 % 0.00 in
08:24 67.9 °F 59.7 °F 29.88 in West 3.4 mph 6.0 mph 75 % 0.00 in
08:29 68.3 °F 59.3 °F 29.87 in NW 3.3 mph 5.0 mph 73 % 0.00 in
08:34 68.5 °F 59.1 °F 29.87 in WNW 2.8 mph 4.0 mph 72 % 0.00 in
08:39 68.7 °F 58.9 °F 29.87 in WNW 1.9 mph 3.0 mph 71 % 0.00 in
08:44 68.7 °F 58.9 °F 29.87 in WSW 1.7 mph 4.6 mph 71 % 0.00 in
08:49 68.7 °F 58.5 °F 29.88 in WNW 3.5 mph 5.8 mph 70 % 0.00 in
08:54 68.5 °F 58.3 °F 29.88 in West 3.0 mph 6.0 mph 70 % 0.00 in
08:59 68.3 °F 58.1 °F 29.88 in WNW 2.6 mph 5.0 mph 70 % 0.00 in
09:04 68.2 °F 58.0 °F 29.88 in WNW 2.7 mph 6.0 mph 70 % 0.00 in
09:09 68.2 °F 58.0 °F 29.88 in WNW 1.5 mph 3.5 mph 70 % 0.00 in
09:14 68.3 °F 57.3 °F 29.88 in WSW 3.9 mph 6.0 mph 68 % 0.00 in
09:19 68.4 °F 57.0 °F 29.89 in WSW 2.2 mph 5.8 mph 67 % 0.00 in
09:24 68.5 °F 56.7 °F 29.88 in SW 2.7 mph 5.8 mph 66 % 0.00 in
09:29 68.5 °F 56.3 °F 29.88 in WNW 3.1 mph 6.9 mph 65 % 0.00 in
09:34 68.5 °F 55.8 °F 29.88 in WNW 2.3 mph 4.0 mph 64 % 0.00 in
09:39 68.6 °F 55.5 °F 29.88 in WNW 4.1 mph 8.1 mph 63 % 0.00 in
09:44 68.7 °F 56.0 °F 29.89 in West 1.8 mph 3.5 mph 64 % 0.00 in
09:49 68.8 °F 55.2 °F 29.89 in WNW 3.4 mph 6.9 mph 62 % 0.00 in
09:54 68.7 °F 54.7 °F 29.89 in WNW 1.4 mph 5.8 mph 61 % 0.00 in
09:59 68.6 °F 55.1 °F 29.89 in WNW 3.9 mph 5.8 mph 62 % 0.00 in
10:04 68.5 °F 54.5 °F 29.90 in WNW 4.7 mph 11.5 mph 61 % 0.00 in
10:09 68.3 °F 53.9 °F 29.89 in WNW 2.3 mph 5.8 mph 60 % 0.00 in
10:14 67.9 °F 53.5 °F 29.89 in WSW 3.6 mph 8.1 mph 60 % 0.00 in
10:19 67.7 °F 52.9 °F 29.89 in NW 1.8 mph 6.9 mph 59 % 0.00 in
10:24 67.6 °F 52.8 °F 29.90 in West 1.9 mph 5.0 mph 59 % 0.00 in
10:29 67.5 °F 52.2 °F 29.90 in WSW 4.5 mph 8.1 mph 58 % 0.00 in
10:34 67.4 °F 52.1 °F 29.90 in SW 4.6 mph 8.1 mph 58 % 0.00 in
10:39 67.2 °F 52.4 °F 29.90 in SW 3.9 mph 5.8 mph 59 % 0.00 in
10:43 67.2 °F 51.9 °F 29.90 in West 2.9 mph 6.9 mph 58 % 0.00 in
10:48 67.2 °F 51.9 °F 29.90 in WNW 3.1 mph 6.9 mph 58 % 0.00 in
10:53 67.4 °F 52.1 °F 29.90 in WNW 4.3 mph 11.5 mph 58 % 0.00 in
10:58 67.5 °F 52.2 °F 29.90 in WNW 4.8 mph 10.0 mph 58 % 0.00 in
11:03 67.6 °F 51.8 °F 29.91 in NW 6.4 mph 8.1 mph 57 % 0.00 in
11:08 67.6 °F 51.3 °F 29.91 in WSW 3.2 mph 10.4 mph 56 % 0.00 in
11:13 67.6 °F 50.9 °F 29.91 in WSW 2.6 mph 5.8 mph 55 % 0.00 in
11:18 67.7 °F 50.9 °F 29.91 in West 4.3 mph 6.9 mph 55 % 0.00 in
11:23 67.8 °F 50.5 °F 29.91 in West 5.2 mph 8.0 mph 54 % 0.00 in
11:28 68.0 °F 50.2 °F 29.91 in WSW 5.4 mph 7.0 mph 53 % 0.00 in
11:33 68.1 °F 49.8 °F 29.92 in West 6.6 mph 11.5 mph 52 % 0.00 in
11:38 68.2 °F 49.9 °F 29.92 in WSW 4.5 mph 9.2 mph 52 % 0.00 in
11:43 68.3 °F 49.5 °F 29.92 in WSW 6.0 mph 9.2 mph 51 % 0.00 in
11:48 68.6 °F 49.7 °F 29.91 in WSW 2.6 mph 6.9 mph 51 % 0.00 in
11:53 69.0 °F 49.0 °F 29.91 in West 3.9 mph 6.9 mph 49 % 0.00 in
11:58 69.3 °F 50.4 °F 29.91 in West 3.0 mph 4.6 mph 51 % 0.00 in
12:03 69.8 °F 49.2 °F 29.91 in WNW 2.8 mph 4.6 mph 48 % 0.00 in
12:08 70.4 °F 48.6 °F 29.91 in WSW 2.2 mph 3.5 mph 46 % 0.00 in
12:13 71.2 °F 48.2 °F 29.91 in NW 3.6 mph 11.5 mph 44 % 0.00 in
12:18 72.1 °F 47.1 °F 29.91 in WNW 6.2 mph 6.2 mph 41 % 0.00 in
12:23 72.9 °F 46.5 °F 29.91 in NW 5.4 mph 11.5 mph 39 % 0.00 in
12:28 73.5 °F 46.3 °F 29.91 in WNW 6.6 mph 9.2 mph 38 % 0.00 in
12:33 73.9 °F 46.0 °F 29.91 in WNW 6.8 mph 11.5 mph 37 % 0.00 in
12:38 74.1 °F 48.2 °F 29.91 in NW 4.9 mph 11.5 mph 40 % 0.00 in
12:43 74.1 °F 45.4 °F 29.90 in West 4.1 mph 8.1 mph 36 % 0.00 in
12:48 73.9 °F 46.0 °F 29.91 in WNW 5.4 mph 12.7 mph 37 % 0.00 in
12:53 73.5 °F 45.6 °F 29.90 in WSW 4.4 mph 9.2 mph 37 % 0.00 in
12:58 72.9 °F 45.8 °F 29.91 in NW 5.2 mph 8.1 mph 38 % 0.00 in
13:03 72.5 °F 45.4 °F 29.91 in WNW 4.3 mph 6.9 mph 38 % 0.00 in
13:08 71.8 °F 45.5 °F 29.91 in West 4.9 mph 10.0 mph 39 % 0.00 in
13:13 71.2 °F 45.0 °F 29.90 in West 5.9 mph 10.4 mph 39 % 0.00 in
13:18 70.8 °F 45.3 °F 29.90 in West 4.9 mph 8.1 mph 40 % 0.00 in
13:23 70.4 °F 44.9 °F 29.90 in SW 6.1 mph 10.0 mph 40 % 0.00 in
13:28 70.3 °F 45.5 °F 29.90 in SW 3.3 mph 8.1 mph 41 % 0.00 in
13:34 70.3 °F 44.8 °F 29.90 in West 5.1 mph 12.7 mph 40 % 0.00 in
13:39 70.3 °F 46.1 °F 29.90 in WSW 4.7 mph 10.0 mph 42 % 0.00 in
13:44 70.3 °F 45.5 °F 29.90 in SW 5.2 mph 8.0 mph 41 % 0.00 in
13:49 70.3 °F 45.5 °F 29.90 in West 5.8 mph 10.4 mph 41 % 0.00 in
13:54 70.3 °F 45.5 °F 29.89 in West 7.6 mph 9.2 mph 41 % 0.00 in
13:59 70.2 °F 44.1 °F 29.89 in West 7.5 mph 12.7 mph 39 % 0.00 in
14:04 70.1 °F 44.6 °F 29.90 in WSW 5.6 mph 9.2 mph 40 % 0.00 in
14:09 70.2 °F 45.4 °F 29.90 in WSW 4.7 mph 4.7 mph 41 % 0.00 in
14:14 70.3 °F 44.2 °F 29.89 in WSW 5.4 mph 11.5 mph 39 % 0.00 in
14:19 70.2 °F 44.7 °F 29.89 in WSW 3.6 mph 9.2 mph 40 % 0.00 in
14:24 70.2 °F 44.1 °F 29.89 in WSW 6.8 mph 11.5 mph 39 % 0.00 in
14:29 70.3 °F 43.5 °F 29.90 in NW 5.0 mph 10.4 mph 38 % 0.00 in
14:34 70.2 °F 43.4 °F 29.89 in NW 4.1 mph 13.8 mph 38 % 0.00 in
14:39 70.2 °F 42.7 °F 29.89 in West 4.3 mph 9.2 mph 37 % 0.00 in
14:44 70.2 °F 42.7 °F 29.89 in West 2.6 mph 11.5 mph 37 % 0.00 in
14:49 70.3 °F 41.3 °F 29.89 in West 3.9 mph 12.7 mph 35 % 0.00 in
14:54 70.5 °F 42.2 °F 29.89 in WNW 4.7 mph 13.0 mph 36 % 0.00 in
14:59 70.7 °F 41.7 °F 29.89 in West 5.3 mph 10.4 mph 35 % 0.00 in
15:04 71.0 °F 42.0 °F 29.90 in WNW 3.1 mph 7.0 mph 35 % 0.00 in
15:09 71.1 °F 40.5 °F 29.90 in WNW 5.0 mph 11.5 mph 33 % 0.00 in
15:14 70.9 °F 40.3 °F 29.90 in WNW 4.0 mph 8.1 mph 33 % 0.00 in
15:19 70.7 °F 38.6 °F 29.90 in NW 8.0 mph 11.5 mph 31 % 0.00 in
15:24 70.3 °F 39.0 °F 29.90 in NW 4.5 mph 12.7 mph 32 % 0.00 in
15:29 70.1 °F 37.2 °F 29.90 in NW 4.7 mph 10.4 mph 30 % 0.00 in
15:34 70.1 °F 36.3 °F 29.90 in WNW 6.3 mph 11.5 mph 29 % 0.00 in
15:40 70.4 °F 35.7 °F 29.90 in West 6.8 mph 14.0 mph 28 % 0.00 in
15:45 70.9 °F 37.0 °F 29.90 in WNW 5.7 mph 12.7 mph 29 % 0.00 in
15:50 71.2 °F 36.4 °F 29.91 in NNW 6.2 mph 16.1 mph 28 % 0.00 in
15:55 71.7 °F 37.7 °F 29.91 in WNW 6.7 mph 9.0 mph 29 % 0.00 in
16:00 72.0 °F 37.1 °F 29.91 in West 7.1 mph 10.4 mph 28 % 0.00 in
16:05 72.3 °F 40.8 °F 29.91 in WNW 5.3 mph 11.5 mph 32 % 0.00 in
16:10 72.4 °F 38.3 °F 29.91 in NW 6.1 mph 10.0 mph 29 % 0.00 in
16:15 72.2 °F 38.2 °F 29.91 in NW 6.7 mph 11.5 mph 29 % 0.00 in
16:20 71.9 °F 38.8 °F 29.91 in NNW 4.5 mph 10.4 mph 30 % 0.00 in
16:25 71.5 °F 40.9 °F 29.91 in WNW 2.0 mph 5.0 mph 33 % 0.00 in
16:30 71.4 °F 39.2 °F 29.91 in WNW 2.6 mph 9.2 mph 31 % 0.00 in
16:35 71.3 °F 39.9 °F 29.91 in WNW 5.0 mph 9.2 mph 32 % 0.00 in
16:40 71.2 °F 38.2 °F 29.91 in WNW 5.1 mph 11.5 mph 30 % 0.00 in
16:45 71.1 °F 39.7 °F 29.92 in West 2.6 mph 5.8 mph 32 % 0.00 in
16:50 71.2 °F 38.2 °F 29.92 in WSW 6.2 mph 9.2 mph 30 % 0.00 in
16:55 71.2 °F 38.2 °F 29.92 in WSW 1.2 mph 5.8 mph 30 % 0.00 in
17:00 71.2 °F 38.2 °F 29.92 in WSW 3.9 mph 6.0 mph 30 % 0.00 in
17:05 71.1 °F 38.1 °F 29.92 in West 3.0 mph 9.2 mph 30 % 0.00 in
17:10 70.9 °F 38.7 °F 29.92 in NW 5.0 mph 9.2 mph 31 % 0.00 in
17:15 70.7 °F 39.4 °F 29.92 in NW 1.8 mph 4.6 mph 32 % 0.00 in
17:20 70.1 °F 38.9 °F 29.93 in WNW 5.1 mph 9.2 mph 32 % 0.00 in
17:26 69.8 °F 39.4 °F 29.93 in West 3.3 mph 4.6 mph 33 % 0.00 in
17:31 69.7 °F 39.3 °F 29.93 in NW 4.9 mph 8.1 mph 33 % 0.00 in
17:36 69.6 °F 40.0 °F 29.93 in West 4.4 mph 9.2 mph 34 % 0.00 in
17:41 69.6 °F 40.0 °F 29.93 in NNW 2.0 mph 6.9 mph 34 % 0.00 in
17:46 69.6 °F 40.0 °F 29.93 in NW 5.5 mph 9.2 mph 34 % 0.00 in
17:51 69.7 °F 39.3 °F 29.94 in NW 3.7 mph 4.6 mph 33 % 0.00 in
17:56 69.7 °F 39.3 °F 29.94 in WNW 1.2 mph 6.9 mph 33 % 0.00 in
18:01 69.6 °F 38.4 °F 29.94 in WNW 2.7 mph 5.0 mph 32 % 0.00 in
18:03 69.6 °F 38.4 °F 29.94 in West 3.7 mph 4.6 mph 32 % 0.00 in
18:08 69.4 °F 38.2 °F 29.94 in West 2.8 mph 4.6 mph 32 % 0.00 in
18:14 69.2 °F 38.1 °F 29.94 in WSW 1.7 mph 6.9 mph 32 % 0.00 in
18:19 69.1 °F 38.0 °F 29.94 in WSW 3.1 mph 5.8 mph 32 % 0.00 in
18:24 69.0 °F 38.7 °F 29.94 in WSW 0.2 mph 1.2 mph 33 % 0.00 in
18:29 68.9 °F 38.6 °F 29.94 in West 0.7 mph 3.0 mph 33 % 0.00 in
18:34 68.8 °F 37.7 °F 29.95 in WNW 0.9 mph 2.3 mph 32 % 0.00 in
18:39 68.7 °F 38.4 °F 29.95 in NW 2.8 mph 5.8 mph 33 % 0.00 in
18:44 68.5 °F 39.0 °F 29.95 in WNW 3.0 mph 5.0 mph 34 % 0.00 in
18:49 68.3 °F 38.8 °F 29.95 in NW 4.1 mph 7.0 mph 34 % 0.00 in
18:54 67.9 °F 37.7 °F 29.95 in West 4.8 mph 9.2 mph 33 % 0.00 in
18:59 67.3 °F 38.7 °F 29.96 in NW 4.8 mph 11.5 mph 35 % 0.00 in
19:04 66.6 °F 39.5 °F 29.97 in WNW 5.7 mph 11.5 mph 37 % 0.00 in
19:09 65.8 °F 38.8 °F 29.97 in NW 6.1 mph 13.0 mph 37 % 0.00 in
19:14 64.9 °F 38.7 °F 29.97 in NW 7.3 mph 11.0 mph 38 % 0.00 in
19:19 64.2 °F 38.7 °F 29.97 in NNW 4.4 mph 11.5 mph 39 % 0.00 in
19:24 63.6 °F 38.8 °F 29.98 in WNW 5.4 mph 9.2 mph 40 % 0.00 in
19:29 63.2 °F 38.5 °F 29.98 in West 6.6 mph 9.0 mph 40 % 0.00 in
19:34 62.8 °F 38.1 °F 29.99 in West 5.9 mph 13.8 mph 40 % 0.00 in
19:39 62.3 °F 38.9 °F 30.00 in WNW 2.0 mph 6.9 mph 42 % 0.00 in
19:44 61.8 °F 39.6 °F 30.00 in NW 5.6 mph 10.4 mph 44 % 0.00 in
19:49 61.4 °F 38.7 °F 30.00 in WNW 5.3 mph 9.2 mph 43 % 0.00 in
19:54 61.0 °F 38.3 °F 30.01 in NW 5.4 mph 11.5 mph 43 % 0.00 in
19:59 60.8 °F 37.5 °F 30.01 in NW 7.4 mph 12.0 mph 42 % 0.00 in
20:04 60.8 °F 38.7 °F 30.01 in West 3.1 mph 10.4 mph 44 % 0.00 in
20:09 60.7 °F 37.5 °F 30.02 in NW 5.4 mph 11.5 mph 42 % 0.00 in
20:14 60.7 °F 36.8 °F 30.02 in NW 5.8 mph 11.5 mph 41 % 0.00 in
20:19 60.7 °F 37.5 °F 30.02 in WNW 5.4 mph 8.1 mph 42 % 0.00 in
20:24 60.7 °F 36.2 °F 30.02 in WNW 5.8 mph 11.5 mph 40 % 0.00 in
20:29 60.7 °F 35.6 °F 30.03 in WNW 2.5 mph 5.8 mph 39 % 0.00 in
20:35 60.7 °F 36.2 °F 30.03 in NNW 4.4 mph 8.0 mph 40 % 0.00 in
20:40 60.7 °F 36.8 °F 30.03 in WNW 5.8 mph 11.5 mph 41 % 0.00 in
20:45 60.6 °F 37.4 °F 30.03 in West 4.4 mph 9.2 mph 42 % 0.00 in
20:50 60.4 °F 36.6 °F 30.04 in West 4.7 mph 10.4 mph 41 % 0.00 in
20:55 60.2 °F 36.4 °F 30.04 in NNW 5.0 mph 11.5 mph 41 % 0.00 in
21:00 60.1 °F 35.7 °F 30.05 in West 7.5 mph 11.5 mph 40 % 0.00 in
21:05 60.0 °F 36.2 °F 30.05 in WNW 4.5 mph 9.0 mph 41 % 0.00 in
21:10 59.9 °F 36.1 °F 30.05 in WNW 4.1 mph 11.5 mph 41 % 0.00 in
21:15 59.8 °F 36.6 °F 30.05 in NW 2.0 mph 8.1 mph 42 % 0.00 in
21:20 59.6 °F 37.1 °F 30.05 in WNW 4.4 mph 8.1 mph 43 % 0.00 in
21:25 59.4 °F 36.9 °F 30.06 in NNW 8.0 mph 15.0 mph 43 % 0.00 in
21:30 59.2 °F 35.5 °F 30.06 in WNW 5.7 mph 9.2 mph 41 % 0.00 in
21:35 59.0 °F 37.1 °F 30.06 in NW 3.6 mph 9.2 mph 44 % 0.00 in
21:40 58.8 °F 37.5 °F 30.06 in NNW 3.9 mph 6.9 mph 45 % 0.00 in
21:42 58.7 °F 37.4 °F 30.07 in WNW 2.5 mph 4.6 mph 45 % 0.00 in
21:47 58.4 °F 37.7 °F 30.07 in NW 2.6 mph 9.2 mph 46 % 0.00 in
21:52 58.2 °F 37.5 °F 30.07 in NW 6.4 mph 11.5 mph 46 % 0.00 in
21:57 58.0 °F 37.3 °F 30.07 in WNW 4.0 mph 8.1 mph 46 % 0.00 in
22:02 57.8 °F 37.1 °F 30.07 in WNW 5.3 mph 8.1 mph 46 % 0.00 in
22:07 57.8 °F 36.0 °F 30.07 in WNW 8.7 mph 10.4 mph 44 % 0.00 in
22:12 57.8 °F 37.1 °F 30.08 in West 4.3 mph 10.0 mph 46 % 0.00 in
22:17 57.8 °F 36.6 °F 30.08 in NW 5.7 mph 8.1 mph 45 % 0.00 in
22:23 57.9 °F 37.2 °F 30.08 in WNW 2.9 mph 7.0 mph 46 % 0.00 in
22:28 57.8 °F 36.6 °F 30.08 in NW 4.9 mph 11.5 mph 45 % 0.00 in
22:33 57.9 °F 36.1 °F 30.08 in NW 4.2 mph 10.4 mph 44 % 0.00 in
22:38 57.9 °F 36.1 °F 30.08 in NW 5.7 mph 7.0 mph 44 % 0.00 in
22:43 58.0 °F 36.2 °F 30.09 in WNW 4.7 mph 9.2 mph 44 % 0.00 in
22:48 58.0 °F 35.6 °F 30.09 in West 4.9 mph 9.2 mph 43 % 0.00 in
22:53 58.1 °F 35.7 °F 30.09 in NNW 6.0 mph 8.0 mph 43 % 0.00 in
22:58 58.3 °F 34.7 °F 30.09 in NW 4.3 mph 11.5 mph 41 % 0.00 in
23:03 58.4 °F 34.8 °F 30.09 in West 5.5 mph 9.0 mph 41 % 0.00 in
23:08 58.5 °F 34.9 °F 30.09 in NW 4.0 mph 8.1 mph 41 % 0.00 in
23:13 58.6 °F 35.0 °F 30.10 in NW 4.0 mph 10.4 mph 41 % 0.00 in
23:18 58.6 °F 35.6 °F 30.10 in WNW 3.4 mph 10.4 mph 42 % 0.00 in
23:23 58.5 °F 35.5 °F 30.10 in WNW 6.4 mph 10.0 mph 42 % 0.00 in
23:28 58.4 °F 36.0 °F 30.10 in NW 0.9 mph 9.2 mph 43 % 0.00 in
23:33 58.2 °F 35.8 °F 30.11 in West 2.7 mph 9.2 mph 43 % 0.00 in
23:39 58.1 °F 35.7 °F 30.11 in WNW 2.7 mph 5.8 mph 43 % 0.00 in
23:44 57.9 °F 36.1 °F 30.11 in NW 2.6 mph 6.9 mph 44 % 0.00 in
23:49 57.7 °F 36.5 °F 30.11 in NW 1.3 mph 3.5 mph 45 % 0.00 in
23:54 57.6 °F 37.0 °F 30.11 in NW 1.6 mph 4.6 mph 46 % 0.00 in
23:59 57.3 °F 37.2 °F 30.11 in WNW 1.4 mph 5.8 mph 47 % 0.00 in
Crab Meadow Weather
Compliments of Weather Underground - 3 mb

Script developed by  Jim McMurry - jmcmurry@mwt.net Adapted for the template by  Wim van der Kuil - Leuven-Template.eu

Weather Terms: Blowing Snow Advisory - Widespread blowing snow with winds 25 to 35 mph, occasionally reducing visibility to 1/4 mile or less.